Time;durP1;ratioP1;P1;durP2;ratioP2;P2;SDS_P1;SDS_P2;PMS_P1;PMS_P2;Temp;Humidity;BMP_temperature;BMP_pressure;BME280_temperature;BME280_humidity;BME280_pressure;Samples;Min_cycle;Max_cycle;Signal;HPM_P1;HPM_P2
2022/07/08 00:01:28;;;;;;;4.97;0.88;;;15.90;61.30;;;;;;4957143;28;20046;-74
2022/07/08 00:03:54;;;;;;;3.38;0.90;;;15.80;61.30;;;;;;4958615;28;20041;-74
2022/07/08 00:06:19;;;;;;;1.38;0.77;;;15.70;61.40;;;;;;4975175;28;20492;-72
2022/07/08 00:08:45;;;;;;;3.10;1.10;;;15.70;61.60;;;;;;4976386;28;20059;-73
2022/07/08 00:11:11;;;;;;;2.95;0.70;;;15.60;61.60;;;;;;4954440;28;20042;-73
2022/07/08 00:13:37;;;;;;;7.80;1.27;;;15.60;62.60;;;;;;4953983;28;20034;-73
2022/07/08 00:16:02;;;;;;;1.70;0.98;;;15.60;61.90;;;;;;4927404;28;20057;-72
2022/07/08 00:18:28;;;;;;;5.25;1.45;;;15.50;61.90;;;;;;4939215;28;20040;-74
2022/07/08 00:20:54;;;;;;;4.97;1.20;;;15.50;62.00;;;;;;4971156;28;20035;-73
2022/07/08 00:23:19;;;;;;;3.28;0.95;;;15.40;62.00;;;;;;4938889;28;20027;-73
2022/07/08 00:25:45;;;;;;;2.97;0.95;;;15.40;62.00;;;;;;4938139;28;20030;-73
2022/07/08 00:28:10;;;;;;;3.70;0.93;;;15.40;62.10;;;;;;4961352;28;20354;-74
2022/07/08 00:30:36;;;;;;;3.20;0.65;;;15.30;62.20;;;;;;4969995;28;20038;-74
2022/07/08 00:33:01;;;;;;;4.18;0.90;;;15.30;62.30;;;;;;4951233;28;20039;-74
2022/07/08 00:35:27;;;;;;;7.80;1.30;;;15.20;62.30;;;;;;4935110;28;20046;-74
2022/07/08 00:37:53;;;;;;;6.18;1.10;;;15.20;63.20;;;;;;4942357;28;20039;-73
2022/07/08 00:40:19;;;;;;;10.40;1.10;;;15.10;62.40;;;;;;4942824;28;20034;-74
2022/07/08 00:42:48;;;;;;;3.03;0.73;;;15.10;62.40;;;;;;4934172;28;20130;-73
2022/07/08 00:45:17;;;;;;;4.85;0.88;;;15.10;62.60;;;;;;4939394;28;20054;-73
2022/07/08 00:47:43;;;;;;;3.53;1.15;;;15.10;62.70;;;;;;4951860;28;20106;-70
2022/07/08 00:50:09;;;;;;;5.15;1.35;;;15.00;62.80;;;;;;4935110;28;20066;-74
2022/07/08 00:52:39;;;;;;;2.08;0.65;;;15.00;63.70;;;;;;4943288;28;20038;-73
2022/07/08 00:55:05;;;;;;;3.92;0.90;;;15.00;63.00;;;;;;4934257;28;20053;-74
2022/07/08 00:57:31;;;;;;;5.53;1.30;;;15.00;63.00;;;;;;4946048;28;20621;-74
2022/07/08 00:59:56;;;;;;;4.30;0.80;;;14.90;63.10;;;;;;4959409;28;20047;-73
2022/07/08 01:02:22;;;;;;;3.92;1.35;;;14.90;63.20;;;;;;4943924;28;20049;-74
2022/07/08 01:04:47;;;;;;;3.20;1.08;;;14.80;63.20;;;;;;4933552;28;20050;-74
2022/07/08 01:07:13;;;;;;;2.10;0.68;;;14.80;63.20;;;;;;4945703;28;20045;-74
2022/07/08 01:09:38;;;;;;;2.75;0.80;;;14.80;63.30;;;;;;4973614;28;20039;-73
2022/07/08 01:12:04;;;;;;;2.30;0.80;;;14.80;63.30;;;;;;4961107;28;20089;-74
2022/07/08 01:14:30;;;;;;;2.20;0.68;;;14.80;63.50;;;;;;4957848;28;20447;-74
2022/07/08 01:16:55;;;;;;;1.85;0.88;;;14.80;63.40;;;;;;4949506;28;20114;-73
2022/07/08 01:19:21;;;;;;;3.33;0.65;;;14.80;63.60;;;;;;4950834;28;20142;-73
2022/07/08 01:21:47;;;;;;;1.85;0.88;;;14.80;63.70;;;;;;4943314;28;20311;-73
2022/07/08 01:24:12;;;;;;;5.05;1.00;;;14.80;63.70;;;;;;4953386;28;20043;-74
2022/07/08 01:26:38;;;;;;;2.80;0.80;;;14.80;63.80;;;;;;4968455;28;20050;-74
2022/07/08 01:29:03;;;;;;;1.35;0.60;;;14.80;63.70;;;;;;4969221;28;20042;-74
2022/07/08 01:31:29;;;;;;;5.00;1.25;;;14.80;63.70;;;;;;4978265;28;20049;-73
2022/07/08 01:33:54;;;;;;;3.05;0.82;;;14.70;63.80;;;;;;4958784;28;20034;-74
2022/07/08 01:36:20;;;;;;;2.47;0.70;;;14.80;63.90;;;;;;4975531;28;20029;-73
2022/07/08 01:38:45;;;;;;;4.28;0.80;;;14.80;63.90;;;;;;4959503;28;20042;-73
2022/07/08 01:41:11;;;;;;;1.80;0.70;;;14.80;63.90;;;;;;4928930;28;20086;-73
2022/07/08 01:43:36;;;;;;;3.38;0.88;;;14.80;63.90;;;;;;4968300;28;20049;-73
2022/07/08 01:46:02;;;;;;;2.40;0.80;;;14.80;64.00;;;;;;4966211;28;20068;-74
2022/07/08 01:48:27;;;;;;;8.27;1.00;;;14.80;64.00;;;;;;4962649;28;20122;-73
2022/07/08 01:50:53;;;;;;;3.70;0.95;;;14.80;64.00;;;;;;4967339;28;20043;-73
2022/07/08 01:53:19;;;;;;;3.25;1.10;;;14.80;64.20;;;;;;4969804;28;20383;-74
2022/07/08 01:55:45;;;;;;;3.15;0.88;;;14.80;64.20;;;;;;4946883;28;20054;-73
2022/07/08 01:58:11;;;;;;;3.80;0.70;;;14.80;64.20;;;;;;4960257;28;20042;-74
2022/07/08 02:00:37;;;;;;;3.60;0.85;;;14.80;64.20;;;;;;4985663;28;20047;-74
2022/07/08 02:03:02;;;;;;;3.85;1.02;;;14.80;64.30;;;;;;4956587;28;20039;-73
2022/07/08 02:05:28;;;;;;;5.40;0.95;;;14.80;64.40;;;;;;4971061;28;21454;-74
2022/07/08 02:07:53;;;;;;;3.88;1.00;;;14.80;64.30;;;;;;4966515;28;20034;-74
2022/07/08 02:10:19;;;;;;;5.38;0.82;;;14.80;64.30;;;;;;4955171;28;20039;-74
2022/07/08 02:12:44;;;;;;;5.43;1.02;;;14.90;64.70;;;;;;4986462;28;20042;-73
2022/07/08 02:15:10;;;;;;;4.90;1.05;;;14.90;64.40;;;;;;4960526;28;20058;-73
2022/07/08 02:17:39;;;;;;;2.95;0.70;;;14.90;64.50;;;;;;4942864;28;20038;-73
2022/07/08 02:20:06;;;;;;;3.63;0.77;;;14.90;64.50;;;;;;4952703;28;20065;-73
2022/07/08 02:22:32;;;;;;;4.40;0.85;;;14.90;64.40;;;;;;4965688;28;20040;-74
2022/07/08 02:24:57;;;;;;;3.55;0.93;;;14.90;64.50;;;;;;4973580;28;20045;-73
2022/07/08 02:27:23;;;;;;;5.38;1.23;;;14.90;64.60;;;;;;4956963;28;20121;-73
2022/07/08 02:29:48;;;;;;;1.10;0.80;;;14.90;64.50;;;;;;4972546;28;20047;-73
2022/07/08 02:32:14;;;;;;;3.70;1.35;;;14.90;65.30;;;;;;4959937;28;20046;-73
2022/07/08 02:34:39;;;;;;;3.13;0.88;;;14.90;64.50;;;;;;4961395;28;20034;-73
2022/07/08 02:37:05;;;;;;;5.22;0.93;;;14.90;64.50;;;;;;4958997;28;20039;-73
2022/07/08 02:39:30;;;;;;;2.78;0.75;;;15.00;64.60;;;;;;4979748;28;20046;-73
2022/07/08 02:41:56;;;;;;;6.70;1.42;;;14.90;64.60;;;;;;4959753;28;20089;-73
2022/07/08 02:44:22;;;;;;;2.85;1.10;;;15.00;64.60;;;;;;4976587;28;20034;-73
2022/07/08 02:46:47;;;;;;;7.20;1.48;;;15.00;64.60;;;;;;4945092;28;20046;-74
2022/07/08 02:49:13;;;;;;;4.88;1.08;;;14.90;64.50;;;;;;4946293;28;20027;-73
2022/07/08 02:51:38;;;;;;;3.40;1.00;;;15.00;64.60;;;;;;4945822;28;20484;-74
2022/07/08 02:54:04;;;;;;;2.85;0.77;;;15.00;64.60;;;;;;4958710;28;20027;-74
2022/07/08 02:56:30;;;;;;;3.13;0.75;;;15.00;64.70;;;;;;4985837;28;20031;-73
2022/07/08 02:58:56;;;;;;;2.90;0.85;;;15.00;64.60;;;;;;4965085;28;20073;-73
2022/07/08 03:01:22;;;;;;;1.63;0.82;;;15.00;64.70;;;;;;4928789;28;20054;-73
2022/07/08 03:03:47;;;;;;;5.47;1.10;;;15.00;64.60;;;;;;4934612;28;20039;-73
2022/07/08 03:06:13;;;;;;;3.20;0.90;;;15.00;64.60;;;;;;4978915;28;20090;-73
2022/07/08 03:08:38;;;;;;;3.30;0.82;;;15.00;64.60;;;;;;4972497;28;20043;-74
2022/07/08 03:11:04;;;;;;;2.88;1.27;;;15.00;64.60;;;;;;4958156;28;20038;-73
2022/07/08 03:13:30;;;;;;;6.55;1.17;;;15.00;64.50;;;;;;4949984;28;20050;-74
2022/07/08 03:15:56;;;;;;;2.60;0.90;;;15.00;64.70;;;;;;4935399;28;20046;-73
2022/07/08 03:18:22;;;;;;;3.15;0.88;;;15.00;65.40;;;;;;4934099;28;20050;-73
2022/07/08 03:20:47;;;;;;;4.03;0.93;;;15.00;64.70;;;;;;4930769;28;20034;-72
2022/07/08 03:23:13;;;;;;;2.40;0.80;;;15.00;64.70;;;;;;4939581;28;20762;-72
2022/07/08 03:25:39;;;;;;;4.35;0.88;;;15.00;64.70;;;;;;4983521;28;20066;-73
2022/07/08 03:28:04;;;;;;;5.03;1.00;;;15.00;64.60;;;;;;4948452;28;20110;-73
2022/07/08 03:30:30;;;;;;;3.65;0.95;;;15.00;64.60;;;;;;4966944;28;20074;-74
2022/07/08 03:32:55;;;;;;;6.32;0.98;;;15.00;64.70;;;;;;4918002;28;20057;-74
2022/07/08 03:35:21;;;;;;;3.75;0.80;;;15.00;64.60;;;;;;4951009;28;20599;-74
2022/07/08 03:37:50;;;;;;;5.13;1.45;;;15.00;64.60;;;;;;4961718;28;20049;-73
2022/07/08 03:42:59;;;;;;;2.33;0.80;;;15.00;64.60;;;;;;4940958;28;20040;-74
2022/07/08 03:45:25;;;;;;;2.97;1.00;;;15.10;64.60;;;;;;4974225;28;20039;-73
2022/07/08 03:47:51;;;;;;;3.47;1.00;;;15.10;64.70;;;;;;4947218;28;20037;-73
2022/07/08 03:50:17;;;;;;;4.03;1.10;;;15.10;64.60;;;;;;4936546;28;20039;-74
2022/07/08 03:52:44;;;;;;;6.15;0.88;;;15.10;64.70;;;;;;4952369;28;20704;-73
2022/07/08 03:55:09;;;;;;;7.47;0.90;;;15.00;64.60;;;;;;4935299;28;20121;-73
2022/07/08 03:57:35;;;;;;;4.65;1.15;;;15.10;64.60;;;;;;4960464;28;20155;-74
2022/07/08 04:00:01;;;;;;;3.25;0.95;;;15.10;64.50;;;;;;4957826;28;20039;-73
2022/07/08 04:02:26;;;;;;;2.97;1.08;;;15.10;64.50;;;;;;4953611;28;20372;-73
2022/07/08 04:04:52;;;;;;;3.40;1.00;;;15.10;64.50;;;;;;4959639;28;20755;-73
2022/07/08 04:07:17;;;;;;;3.97;1.05;;;15.10;64.50;;;;;;4942447;28;20046;-72
2022/07/08 04:09:43;;;;;;;3.45;1.15;;;15.10;64.50;;;;;;4943458;28;20046;-72
2022/07/08 04:12:09;;;;;;;3.28;0.80;;;15.10;64.50;;;;;;4925774;28;20118;-71
2022/07/08 04:14:35;;;;;;;5.40;1.10;;;15.10;64.50;;;;;;4924472;28;20784;-72
2022/07/08 04:17:01;;;;;;;4.38;1.13;;;15.20;64.50;;;;;;4958258;28;20031;-72
2022/07/08 04:19:26;;;;;;;2.22;0.70;;;15.10;64.40;;;;;;4950369;28;20030;-73
2022/07/08 04:21:52;;;;;;;6.68;1.17;;;15.20;64.50;;;;;;4958090;28;20027;-71
2022/07/08 04:24:17;;;;;;;2.63;0.80;;;15.20;64.40;;;;;;4952783;28;20027;-73
2022/07/08 04:26:43;;;;;;;4.75;1.25;;;15.20;64.40;;;;;;4951721;28;20027;-73
2022/07/08 04:29:08;;;;;;;2.53;0.95;;;15.20;64.30;;;;;;4938116;28;20027;-73
2022/07/08 04:31:34;;;;;;;4.78;1.23;;;15.20;64.30;;;;;;4950568;28;20492;-73
2022/07/08 04:33:59;;;;;;;5.50;1.08;;;15.20;64.30;;;;;;4967325;28;20677;-74
2022/07/08 04:36:25;;;;;;;9.77;1.27;;;15.20;64.40;;;;;;4955781;28;20043;-74
2022/07/08 04:38:50;;;;;;;3.10;0.98;;;15.20;64.40;;;;;;4946959;28;20035;-72
2022/07/08 04:41:16;;;;;;;3.03;1.10;;;15.20;64.30;;;;;;4961955;28;20527;-73
2022/07/08 04:43:43;;;;;;;2.78;0.80;;;15.20;64.30;;;;;;4966584;28;20117;-74
2022/07/08 04:46:10;;;;;;;3.15;0.80;;;15.20;64.30;;;;;;4937239;28;20146;-73
2022/07/08 04:48:35;;;;;;;2.78;0.75;;;15.20;64.30;;;;;;4973908;28;20075;-73
2022/07/08 04:51:01;;;;;;;3.78;0.98;;;15.20;64.30;;;;;;4976841;28;20526;-73
2022/07/08 04:53:27;;;;;;;4.70;0.95;;;15.20;64.30;;;;;;4973812;28;20035;-73
2022/07/08 04:55:52;;;;;;;3.97;1.20;;;15.20;64.30;;;;;;4971121;28;20077;-74
2022/07/08 04:58:18;;;;;;;5.50;1.13;;;15.20;64.30;;;;;;4952927;28;20059;-72
2022/07/08 05:00:43;;;;;;;2.67;1.00;;;15.20;64.30;;;;;;4954020;28;20121;-72
2022/07/08 05:03:09;;;;;;;6.43;1.10;;;15.20;64.30;;;;;;4954562;28;20523;-74
2022/07/08 05:05:34;;;;;;;4.40;1.02;;;15.30;64.30;;;;;;4942246;28;20117;-73
2022/07/08 05:08:00;;;;;;;5.28;1.60;;;15.20;64.30;;;;;;4927358;28;20477;-72
2022/07/08 05:10:26;;;;;;;1.90;0.80;;;15.30;64.30;;;;;;4950053;28;20082;-72
2022/07/08 05:12:51;;;;;;;2.40;0.80;;;15.20;64.30;;;;;;4948015;28;20038;-72
2022/07/08 05:15:17;;;;;;;6.45;0.93;;;15.30;64.40;;;;;;4964010;28;20038;-72
2022/07/08 05:17:42;;;;;;;4.78;1.05;;;15.30;64.40;;;;;;4931786;28;20063;-72
2022/07/08 05:20:09;;;;;;;5.05;0.93;;;15.30;64.40;;;;;;4918105;28;20039;-72
2022/07/08 05:22:35;;;;;;;2.78;1.00;;;15.30;64.30;;;;;;4954169;28;20031;-73
2022/07/08 05:25:01;;;;;;;4.57;0.90;;;15.30;64.30;;;;;;4943232;28;20042;-73
2022/07/08 05:27:27;;;;;;;3.53;0.68;;;15.30;64.20;;;;;;4976039;28;20067;-74
2022/07/08 05:29:52;;;;;;;6.55;0.90;;;15.30;64.20;;;;;;4953344;28;20142;-73
2022/07/08 05:32:18;;;;;;;5.53;0.90;;;15.40;64.30;;;;;;4928917;28;20379;-72
2022/07/08 05:34:44;;;;;;;3.67;0.85;;;15.40;65.10;;;;;;4935220;28;20047;-73
2022/07/08 05:37:10;;;;;;;4.90;1.13;;;15.40;64.20;;;;;;4964818;28;20037;-70
2022/07/08 05:39:36;;;;;;;2.35;0.85;;;15.50;64.10;;;;;;4943976;28;20045;-73
2022/07/08 05:42:01;;;;;;;2.58;0.75;;;15.50;64.10;;;;;;4954876;28;20035;-73
2022/07/08 05:44:27;;;;;;;3.25;0.93;;;15.50;64.00;;;;;;4978171;28;20101;-72
2022/07/08 05:46:52;;;;;;;4.90;0.93;;;15.50;64.00;;;;;;4937278;28;20118;-72
2022/07/08 05:49:18;;;;;;;3.47;0.93;;;15.50;63.90;;;;;;4931040;28;20114;-71
2022/07/08 05:51:45;;;;;;;5.47;1.02;;;15.50;63.80;;;;;;4970409;28;20053;-71
2022/07/08 05:54:10;;;;;;;7.22;0.85;;;15.60;63.70;;;;;;4951868;28;20038;-71
2022/07/08 05:56:36;;;;;;;7.78;1.10;;;15.60;63.70;;;;;;4960568;28;20066;-72
2022/07/08 05:59:02;;;;;;;3.30;0.80;;;15.70;63.80;;;;;;4952284;28;20027;-72
2022/07/08 06:01:27;;;;;;;5.50;1.45;;;15.80;63.60;;;;;;4934089;28;20031;-72
2022/07/08 06:03:53;;;;;;;4.47;1.05;;;15.80;63.50;;;;;;4949222;28;20126;-71
2022/07/08 06:06:18;;;;;;;2.70;0.88;;;15.90;63.30;;;;;;4958795;28;20034;-71
2022/07/08 06:08:44;;;;;;;13.05;0.95;;;16.00;63.10;;;;;;4922700;28;20038;-71
2022/07/08 06:11:09;;;;;;;3.38;0.70;;;16.10;62.90;;;;;;4958310;28;20035;-72
2022/07/08 06:13:35;;;;;;;5.85;0.70;;;16.30;62.80;;;;;;4944709;28;20093;-71
2022/07/08 06:16:00;;;;;;;7.32;1.08;;;16.40;62.70;;;;;;4952626;28;20051;-70
2022/07/08 06:18:26;;;;;;;3.88;0.90;;;16.50;62.50;;;;;;4952364;28;20039;-71
2022/07/08 06:20:51;;;;;;;2.85;1.08;;;16.50;62.20;;;;;;4956908;28;20031;-72
2022/07/08 06:23:17;;;;;;;4.07;1.10;;;16.60;62.10;;;;;;4958294;28;20088;-71
2022/07/08 06:25:42;;;;;;;4.75;1.02;;;16.60;61.80;;;;;;4946057;28;20080;-71
2022/07/08 06:28:08;;;;;;;2.70;1.15;;;16.70;61.70;;;;;;4942535;28;20762;-72
2022/07/08 06:30:34;;;;;;;5.43;1.02;;;16.70;61.60;;;;;;4953598;28;20053;-72
2022/07/08 06:33:00;;;;;;;3.30;0.70;;;16.80;61.40;;;;;;4981201;28;20045;-71
2022/07/08 06:35:26;;;;;;;5.10;1.08;;;16.80;61.30;;;;;;4960755;28;20041;-71
2022/07/08 06:37:53;;;;;;;4.22;0.90;;;16.80;61.10;;;;;;4958886;28;20067;-71
2022/07/08 06:40:20;;;;;;;4.75;0.95;;;16.90;61.10;;;;;;4938704;28;20047;-73
2022/07/08 06:42:47;;;;;;;7.47;1.20;;;16.90;61.00;;;;;;4944319;28;20055;-73
2022/07/08 06:45:13;;;;;;;4.50;1.25;;;17.00;60.90;;;;;;4962096;28;20039;-71
2022/07/08 06:47:38;;;;;;;10.27;1.00;;;17.00;60.80;;;;;;4929839;28;20034;-72
2022/07/08 06:50:06;;;;;;;3.70;1.05;;;17.10;60.70;;;;;;4935558;28;20031;-72
2022/07/08 06:52:31;;;;;;;5.88;1.20;;;17.10;60.70;;;;;;4948852;28;20070;-72
2022/07/08 06:54:57;;;;;;;5.20;0.95;;;17.20;60.40;;;;;;4933931;28;20038;-72
2022/07/08 06:57:22;;;;;;;5.07;0.82;;;17.20;60.20;;;;;;4909860;28;20055;-73
2022/07/08 06:59:48;;;;;;;4.50;1.17;;;17.30;60.10;;;;;;4930348;28;20034;-69
2022/07/08 07:02:14;;;;;;;6.68;1.00;;;17.30;60.00;;;;;;4914385;28;20035;-69
2022/07/08 07:04:39;;;;;;;7.60;0.95;;;17.40;60.00;;;;;;4958324;28;20390;-69
2022/07/08 07:07:05;;;;;;;4.05;1.00;;;17.50;60.10;;;;;;4950846;28;20158;-69
2022/07/08 07:09:30;;;;;;;4.88;0.80;;;17.60;59.80;;;;;;4966469;28;20061;-72
2022/07/08 07:11:56;;;;;;;3.20;0.85;;;17.60;59.60;;;;;;4969786;28;20028;-72
2022/07/08 07:14:21;;;;;;;3.70;0.90;;;17.70;59.30;;;;;;4959796;28;20045;-72
2022/07/08 07:16:47;;;;;;;3.08;0.80;;;17.70;59.10;;;;;;4911558;28;20176;-72
2022/07/08 07:19:12;;;;;;;5.00;0.90;;;17.80;59.10;;;;;;4942049;28;20454;-72
2022/07/08 07:21:38;;;;;;;5.10;0.73;;;17.90;58.90;;;;;;4949283;28;20134;-71
2022/07/08 07:24:04;;;;;;;5.10;0.85;;;18.00;58.70;;;;;;4955413;28;20051;-72
2022/07/08 07:26:30;;;;;;;9.52;1.00;;;18.00;58.60;;;;;;4927907;28;20574;-71
2022/07/08 07:28:55;;;;;;;3.17;1.00;;;18.10;58.50;;;;;;4937132;28;20026;-73
2022/07/08 07:31:21;;;;;;;3.28;0.70;;;18.20;58.40;;;;;;4953642;28;20035;-72
2022/07/08 07:33:46;;;;;;;4.47;1.23;;;18.30;58.30;;;;;;4929097;28;20506;-73
2022/07/08 07:36:13;;;;;;;3.63;0.90;;;18.40;58.00;;;;;;4928340;28;20039;-72
2022/07/08 07:38:38;;;;;;;5.13;1.02;;;18.40;57.90;;;;;;4954517;28;20610;-72
2022/07/08 07:41:04;;;;;;;3.10;0.82;;;18.50;57.70;;;;;;4924011;28;20045;-72
2022/07/08 07:43:29;;;;;;;8.70;1.13;;;18.60;57.60;;;;;;4938853;28;20523;-71
2022/07/08 07:45:55;;;;;;;4.03;1.00;;;18.80;57.50;;;;;;4929984;28;20126;-72
2022/07/08 07:48:21;;;;;;;3.35;0.90;;;18.80;57.30;;;;;;4933762;28;20042;-73
2022/07/08 07:50:46;;;;;;;2.38;0.88;;;18.90;57.20;;;;;;4937478;28;20104;-72
2022/07/08 07:53:12;;;;;;;3.35;1.25;;;19.00;56.90;;;;;;4953360;28;20761;-72
2022/07/08 07:55:37;;;;;;;5.88;0.90;;;19.10;56.80;;;;;;4966885;28;20582;-73
2022/07/08 07:58:03;;;;;;;3.83;1.15;;;19.20;56.70;;;;;;4937112;28;20505;-72
2022/07/08 08:00:28;;;;;;;2.88;0.77;;;19.30;56.50;;;;;;4940278;28;20046;-73
2022/07/08 08:02:54;;;;;;;4.28;1.02;;;19.40;56.30;;;;;;4924307;28;20035;-72
2022/07/08 08:05:20;;;;;;;5.15;1.13;;;19.50;56.10;;;;;;4933269;28;20051;-73
2022/07/08 08:07:45;;;;;;;9.70;1.05;;;19.50;55.80;;;;;;4942280;28;20047;-72
2022/07/08 08:10:12;;;;;;;3.67;0.70;;;19.60;55.70;;;;;;4950790;28;20048;-72
2022/07/08 08:12:38;;;;;;;3.92;0.82;;;19.60;55.40;;;;;;4956490;28;20452;-73
2022/07/08 08:15:04;;;;;;;1.90;0.77;;;19.70;55.20;;;;;;4957049;28;20047;-72
2022/07/08 08:17:37;;;;;;;2.75;0.80;;;19.80;55.10;;;;;;4950281;28;20055;-72
2022/07/08 08:20:05;;;;;;;4.95;1.35;;;19.90;54.90;;;;;;4963577;28;20035;-74
2022/07/08 08:22:30;;;;;;;2.10;0.82;;;20.00;54.80;;;;;;4951666;28;20047;-73
2022/07/08 08:24:56;;;;;;;2.50;0.70;;;20.10;54.70;;;;;;4986136;28;20043;-72
2022/07/08 08:27:21;;;;;;;2.92;0.90;;;20.20;54.50;;;;;;4959811;28;20070;-71
2022/07/08 08:29:47;;;;;;;1.63;0.70;;;20.20;54.20;;;;;;4955849;28;20121;-72
2022/07/08 08:32:12;;;;;;;1.42;0.55;;;20.30;54.20;;;;;;4940467;28;20051;-72
2022/07/08 08:34:38;;;;;;;3.55;0.70;;;20.50;54.10;;;;;;4932788;28;20169;-72
2022/07/08 08:37:03;;;;;;;2.63;0.80;;;20.50;53.80;;;;;;4965609;28;20048;-72
2022/07/08 08:39:29;;;;;;;4.93;1.10;;;20.60;53.60;;;;;;4943825;28;20601;-71
2022/07/08 08:41:54;;;;;;;3.10;0.70;;;20.80;53.50;;;;;;4943919;28;20079;-72
2022/07/08 08:44:20;;;;;;;2.45;0.70;;;20.80;53.30;;;;;;4928321;28;20047;-72
2022/07/08 08:46:45;;;;;;;5.30;0.90;;;21.00;53.10;;;;;;4908162;28;20616;-71
2022/07/08 08:49:11;;;;;;;2.13;0.68;;;21.10;52.90;;;;;;4939429;28;20050;-71
2022/07/08 08:51:37;;;;;;;3.33;0.80;;;21.30;52.60;;;;;;4959457;28;20089;-72
2022/07/08 08:54:03;;;;;;;3.25;0.75;;;21.40;52.30;;;;;;4928583;28;20035;-72
2022/07/08 08:56:28;;;;;;;2.65;1.00;;;21.40;52.20;;;;;;4925664;28;21391;-71
2022/07/08 08:58:54;;;;;;;5.60;0.95;;;21.60;52.00;;;;;;4958500;28;20042;-71
2022/07/08 09:01:19;;;;;;;1.77;0.70;;;21.70;51.90;;;;;;4931050;28;20043;-73
2022/07/08 09:03:45;;;;;;;2.63;0.80;;;21.80;51.60;;;;;;4917537;28;20066;-72
2022/07/08 09:06:11;;;;;;;6.43;1.40;;;21.80;51.20;;;;;;4936162;28;20043;-72
2022/07/08 09:08:37;;;;;;;3.05;0.70;;;21.90;51.10;;;;;;4935504;28;21345;-72
2022/07/08 09:11:03;;;;;;;2.35;0.55;;;22.00;51.00;;;;;;4965999;28;20392;-72
2022/07/08 09:13:28;;;;;;;2.85;0.68;;;22.00;50.80;;;;;;4937649;28;20043;-72
2022/07/08 09:15:55;;;;;;;7.68;0.60;;;22.20;50.70;;;;;;4926209;28;20050;-73
2022/07/08 09:18:25;;;;;;;1.77;0.63;;;22.30;50.50;;;;;;4961971;28;20050;-72
2022/07/08 09:20:52;;;;;;;2.25;0.65;;;22.30;50.20;;;;;;4956270;28;20058;-72
2022/07/08 09:23:19;;;;;;;2.47;0.90;;;22.40;50.00;;;;;;4936087;28;20050;-73
2022/07/08 09:25:46;;;;;;;5.50;0.73;;;22.50;49.80;;;;;;4965157;28;20081;-72
2022/07/08 09:28:11;;;;;;;2.90;0.50;;;22.50;49.60;;;;;;4936904;28;20047;-72
2022/07/08 09:30:39;;;;;;;2.38;0.68;;;22.60;49.50;;;;;;4970838;28;20035;-73
2022/07/08 09:33:04;;;;;;;3.03;0.82;;;22.70;49.30;;;;;;4950202;28;20039;-72
2022/07/08 09:35:37;;;;;;;4.35;0.73;;;22.80;49.10;;;;;;4960690;28;20694;-71
2022/07/08 09:38:07;;;;;;;3.95;0.95;;;22.80;48.80;;;;;;4944822;28;20042;-74
2022/07/08 09:40:32;;;;;;;5.53;0.60;;;22.80;48.70;;;;;;4943840;28;20038;-72
2022/07/08 09:43:00;;;;;;;3.25;0.60;;;22.90;48.70;;;;;;4947381;28;20756;-73
2022/07/08 09:45:34;;;;;;;2.38;1.00;;;22.90;48.40;;;;;;4937431;28;20092;-73
2022/07/08 09:48:07;;;;;;;2.08;0.60;;;22.80;48.00;;;;;;4940538;28;20093;-71
2022/07/08 09:50:39;;;;;;;2.40;0.57;;;22.80;48.20;;;;;;4962479;28;20125;-72
2022/07/08 09:53:27;;;;;;;4.47;0.70;;;22.90;48.00;;;;;;4962313;28;20031;-72
2022/07/08 09:55:54;;;;;;;1.60;0.43;;;23.00;47.70;;;;;;4967454;28;20046;-72
2022/07/08 09:58:23;;;;;;;2.35;0.50;;;23.00;48.00;;;;;;4954811;28;20038;-72
2022/07/08 10:00:50;;;;;;;2.10;0.60;;;23.10;47.80;;;;;;4979614;28;20069;-72
2022/07/08 10:03:16;;;;;;;7.25;0.60;;;23.10;47.70;;;;;;4955930;28;20491;-72
2022/07/08 10:05:42;;;;;;;1.83;0.80;;;23.10;47.50;;;;;;4945951;28;20895;-74
2022/07/08 10:08:08;;;;;;;2.60;0.55;;;23.10;47.30;;;;;;4962837;28;20122;-71
2022/07/08 10:10:34;;;;;;;1.58;0.55;;;23.10;47.20;;;;;;4948146;28;20047;-71
2022/07/08 10:13:00;;;;;;;1.35;0.50;;;23.10;47.20;;;;;;4938255;28;20042;-72
2022/07/08 10:15:26;;;;;;;2.33;0.80;;;23.10;47.10;;;;;;4923997;28;20054;-71
2022/07/08 10:17:52;;;;;;;2.67;0.68;;;23.10;46.90;;;;;;4952940;28;20130;-72
2022/07/08 10:20:18;;;;;;;2.40;0.75;;;23.20;46.90;;;;;;4919051;28;20035;-73
2022/07/08 10:22:44;;;;;;;4.57;0.60;;;23.20;46.80;;;;;;4939210;28;20460;-73
2022/07/08 10:25:10;;;;;;;1.77;0.70;;;23.30;46.70;;;;;;4934701;28;20077;-71
2022/07/08 10:27:36;;;;;;;2.53;0.57;;;23.40;46.70;;;;;;4934499;28;20142;-72
2022/07/08 10:30:20;;;;;;;2.53;0.73;;;23.60;46.50;;;;;;4952313;28;20046;-72
2022/07/08 10:32:49;;;;;;;1.38;0.60;;;23.70;46.40;;;;;;4953719;28;20034;-73
2022/07/08 10:35:18;;;;;;;2.20;0.60;;;24.00;46.30;;;;;;4946197;28;20038;-72
2022/07/08 10:37:50;;;;;;;3.83;0.90;;;24.10;45.90;;;;;;4956240;28;20467;-72
2022/07/08 10:40:37;;;;;;;4.22;0.60;;;24.30;46.40;;;;;;4956702;28;20058;-72
2022/07/08 10:43:06;;;;;;;6.13;1.38;;;24.60;45.30;;;;;;4957817;28;20084;-74
2022/07/08 10:46:10;;;;;;;3.35;0.60;;;24.90;45.40;;;;;;4928340;28;20043;-72
2022/07/08 10:48:44;;;;;;;1.15;0.52;;;25.10;44.70;;;;;;4960181;28;20047;-73
2022/07/08 10:51:25;;;;;;;4.22;0.75;;;25.40;44.70;;;;;;4957897;28;20092;-72
2022/07/08 10:53:53;;;;;;;1.17;0.60;;;25.60;43.80;;;;;;4968988;28;20046;-74
2022/07/08 10:56:44;;;;;;;1.58;0.60;;;25.80;44.10;;;;;;4964256;28;20053;-72
2022/07/08 10:59:29;;;;;;;32.08;2.92;;;26.00;42.80;;;;;;4957913;28;20038;-72
2022/07/08 11:02:11;;;;;;;6.22;0.85;;;26.10;42.90;;;;;;4944335;28;20038;-73
2022/07/08 11:04:37;;;;;;;8.70;1.10;;;26.10;43.00;;;;;;4959255;28;20081;-73
2022/07/08 11:07:20;;;;;;;5.60;0.70;;;26.20;43.00;;;;;;4957901;28;20119;-73
2022/07/08 11:09:49;;;;;;;12.40;2.80;;;26.20;42.30;;;;;;4955405;28;20074;-73
2022/07/08 11:12:17;;;;;;;38.40;10.50;;;26.20;42.60;;;;;;4964080;28;20043;-73
2022/07/08 11:14:46;;;;;;;16.00;2.42;;;26.10;42.30;;;;;;4931158;28;20486;-73
2022/07/08 11:17:19;;;;;;;98.50;19.63;;;26.20;42.20;;;;;;4956833;28;20065;-73
2022/07/08 11:19:45;;;;;;;4.93;1.75;;;26.30;41.90;;;;;;4920422;28;20121;-72
2022/07/08 11:22:10;;;;;;;13.40;1.58;;;26.50;42.00;;;;;;4926486;28;20030;-73
2022/07/08 11:24:37;;;;;;;11.25;1.50;;;26.70;41.80;;;;;;4939531;28;20075;-73
2022/07/08 11:27:03;;;;;;;3.35;0.60;;;26.80;41.50;;;;;;4939766;28;20077;-73
2022/07/08 11:29:29;;;;;;;15.05;2.00;;;27.00;41.30;;;;;;4926023;28;20035;-73
2022/07/08 11:32:01;;;;;;;41.65;4.57;;;27.30;41.20;;;;;;4953323;28;20037;-74
2022/07/08 11:34:27;;;;;;;13.65;2.42;;;27.40;40.90;;;;;;4959799;28;20107;-73
2022/07/08 11:36:59;;;;;;;4.85;0.70;;;27.60;40.80;;;;;;4947164;28;20037;-74
2022/07/08 11:39:25;;;;;;;6.75;1.15;;;27.80;40.00;;;;;;4938139;28;20101;-72
2022/07/08 11:41:51;;;;;;;5.78;0.57;;;27.90;40.00;;;;;;4948930;28;20062;-72
2022/07/08 11:44:18;;;;;;;13.93;2.00;;;28.00;39.70;;;;;;4931120;28;20039;-72
2022/07/08 11:46:51;;;;;;;3.70;0.70;;;28.20;39.40;;;;;;4961040;28;20046;-75
2022/07/08 11:49:17;;;;;;;2.50;1.02;;;28.40;39.00;;;;;;4894310;28;20503;-73
2022/07/08 11:51:46;;;;;;;2.60;0.80;;;28.60;38.90;;;;;;4961868;28;20058;-74
2022/07/08 11:54:12;;;;;;;1.65;0.52;;;28.80;38.50;;;;;;4943704;28;20105;-72
2022/07/08 11:56:38;;;;;;;2.90;0.77;;;29.00;38.50;;;;;;4944162;28;20047;-73
2022/07/08 11:59:04;;;;;;;3.35;0.70;;;29.20;38.30;;;;;;4948532;28;20045;-73
2022/07/08 12:01:30;;;;;;;5.38;0.80;;;29.30;37.90;;;;;;4929018;28;20038;-72
2022/07/08 12:03:58;;;;;;;3.05;0.90;;;29.50;37.60;;;;;;4928023;28;20035;-71
2022/07/08 12:06:25;;;;;;;6.47;1.10;;;29.70;37.20;;;;;;4935204;28;20201;-73
2022/07/08 12:08:50;;;;;;;6.85;1.40;;;29.90;37.10;;;;;;4954357;28;20562;-71
2022/07/08 12:11:21;;;;;;;2.60;0.80;;;30.00;36.80;;;;;;4933817;28;20126;-71
2022/07/08 12:13:48;;;;;;;;;;;30.10;36.40;;;;;;4951232;28;20058;-72
2022/07/08 12:16:47;;;;;;;2.22;0.60;;;30.30;36.50;;;;;;4957577;28;19950;-71
2022/07/08 12:19:25;;;;;;;3.38;0.63;;;30.40;35.60;;;;;;4935249;28;20049;-73
2022/07/08 12:21:52;;;;;;;3.03;0.80;;;30.60;35.20;;;;;;4962293;28;20036;-72
2022/07/08 12:24:31;;;;;;;3.63;0.68;;;30.70;35.80;;;;;;4969000;28;20521;-72
2022/07/08 12:26:58;;;;;;;3.40;0.65;;;30.80;35.30;;;;;;4939035;28;20043;-72
2022/07/08 12:29:25;;;;;;;11.93;2.05;;;30.90;35.20;;;;;;4967839;28;20123;-72
2022/07/08 12:31:50;;;;;;;7.47;1.10;;;30.90;34.80;;;;;;4951896;28;20039;-73
2022/07/08 12:34:22;;;;;;;6.22;0.70;;;31.00;34.80;;;;;;4954597;28;20042;-72
2022/07/08 12:36:48;;;;;;;5.13;0.95;;;31.10;34.50;;;;;;4920530;28;20058;-71
2022/07/08 12:39:27;;;;;;;2.75;0.75;;;31.10;34.40;;;;;;4939821;28;20038;-72
2022/07/08 12:42:00;;;;;;;4.50;0.90;;;31.20;34.80;;;;;;4965579;28;20065;-72
2022/07/08 12:44:31;;;;;;;3.85;0.88;;;31.20;33.60;;;;;;4965845;28;20125;-73
2022/07/08 12:46:57;;;;;;;8.85;0.90;;;31.30;33.70;;;;;;4963234;28;20048;-72